Time,TemperatureF,DewpointF,PressureIn,WindDirection,WindDirectionDegrees,WindSpeedMPH,WindSpeedGustMPH,Humidity,HourlyPrecipIn,Conditions,Clouds,dailyrainin,SoftwareType,DateUTC
2013-06-03 00:00:00,56.6,52.5,29.85,NNW,337,2.0,2.0,86,0.00,,,0.41,WeatherDisplay:10.37,2013-06-03 04:00:00,
2013-06-03 00:01:00,56.6,52.5,29.86,West,274,2.3,2.3,86,0.00,RA,,0.00,WeatherDisplay:10.37,2013-06-03 04:01:00,
2013-06-03 00:02:00,56.6,52.5,29.86,NW,316,2.0,2.0,86,0.00,RA,,0.00,WeatherDisplay:10.37,2013-06-03 04:02:00,
2013-06-03 00:07:00,56.5,52.0,29.86,West,260,3.5,3.5,85,0.00,RA,,0.00,WeatherDisplay:10.37,2013-06-03 04:07:00,
2013-06-03 00:12:00,56.3,51.8,29.86,SW,236,2.3,2.3,85,0.00,,,0.00,WeatherDisplay:10.37,2013-06-03 04:12:00,
2013-06-03 00:17:00,56.1,51.7,29.86,WSW,255,3.5,3.5,85,0.00,,,0.00,WeatherDisplay:10.37,2013-06-03 04:17:00,
2013-06-03 00:22:00,55.9,51.8,29.87,NE,44,3.5,3.5,86,0.00,,,0.00,WeatherDisplay:10.37,2013-06-03 04:22:00,
2013-06-03 00:27:00,55.7,51.3,29.88,NE,41,3.5,3.5,85,0.00,,,0.00,WeatherDisplay:10.37,2013-06-03 04:27:00,
2013-06-03 00:32:00,55.5,51.4,29.88,WNW,302,0.0,0.0,86,0.00,,,0.00,WeatherDisplay:10.37,2013-06-03 04:32:00,
2013-06-03 00:37:00,55.4,51.3,29.88,NNW,348,3.5,3.5,86,0.00,,,0.00,WeatherDisplay:10.37,2013-06-03 04:37:00,
2013-06-03 00:42:00,55.4,51.3,29.89,NE,35,1.1,1.1,86,0.00,,,0.00,WeatherDisplay:10.37,2013-06-03 04:42:00,
2013-06-03 00:47:00,55.4,51.3,29.89,WNW,294,2.0,2.0,86,0.00,,,0.00,WeatherDisplay:10.37,2013-06-03 04:47:00,
2013-06-03 00:52:00,55.5,51.4,29.89,NW,319,0.0,0.0,86,0.00,,,0.00,WeatherDisplay:10.37,2013-06-03 04:52:00,
2013-06-03 00:57:00,55.4,51.0,29.89,WNW,294,2.3,2.3,85,0.00,,,0.00,WeatherDisplay:10.37,2013-06-03 04:57:00,
2013-06-03 01:02:00,55.3,50.9,29.89,WSW,251,8.0,8.0,85,0.00,,,0.00,WeatherDisplay:10.37,2013-06-03 05:02:00,
2013-06-03 01:07:00,55.2,50.4,29.89,West,264,2.3,2.3,84,0.00,,,0.00,WeatherDisplay:10.37,2013-06-03 05:07:00,
2013-06-03 01:12:00,55.1,50.7,29.89,WSW,257,2.3,0.0,85,0.00,,,0.00,WeatherDisplay:10.37,2013-06-03 05:12:00,
2013-06-03 01:17:00,55.0,50.3,29.88,West,271,2.3,2.3,84,0.00,,,0.00,WeatherDisplay:10.37,2013-06-03 05:17:00,
2013-06-03 01:22:00,54.8,49.7,29.89,WSW,257,2.3,2.3,83,0.00,,,0.00,WeatherDisplay:10.37,2013-06-03 05:22:00,
2013-06-03 01:27:00,54.6,49.9,29.89,ENE,75,3.0,3.0,84,0.00,,,0.00,WeatherDisplay:10.37,2013-06-03 05:27:00,
2013-06-03 01:32:00,54.3,49.6,29.89,East,101,2.3,2.3,84,0.00,,,0.00,WeatherDisplay:10.37,2013-06-03 05:32:00,
2013-06-03 01:37:00,54.1,49.4,29.89,SW,225,0.0,0.0,84,0.00,,,0.00,WeatherDisplay:10.37,2013-06-03 05:37:00,
2013-06-03 01:42:00,53.8,49.1,29.89,WSW,253,0.0,0.2,84,0.00,,,0.00,WeatherDisplay:10.37,2013-06-03 05:42:00,
2013-06-03 01:47:00,53.5,49.1,29.90,WSW,255,0.0,0.0,85,0.00,,,0.00,WeatherDisplay:10.37,2013-06-03 05:47:00,
2013-06-03 01:52:00,53.3,49.2,29.89,WNW,293,0.0,0.0,86,0.00,,,0.00,WeatherDisplay:10.37,2013-06-03 05:52:00,
2013-06-03 01:57:00,53.2,49.1,29.89,WNW,293,0.0,0.1,86,0.00,,,0.00,WeatherDisplay:10.37,2013-06-03 05:57:00,
2013-06-03 02:02:00,53.1,49.0,29.90,West,280,1.1,1.1,86,0.00,,,0.00,WeatherDisplay:10.37,2013-06-03 06:02:00,
2013-06-03 02:07:00,53.1,49.0,29.89,WNW,287,3.5,3.5,86,0.00,,,0.00,WeatherDisplay:10.37,2013-06-03 06:07:00,
2013-06-03 02:12:00,53.2,49.4,29.90,NNW,330,2.3,0.0,87,0.00,,,0.00,WeatherDisplay:10.37,2013-06-03 06:12:00,
2013-06-03 02:17:00,53.3,49.5,29.90,WNW,293,0.0,0.0,87,0.00,,,0.00,WeatherDisplay:10.37,2013-06-03 06:17:00,
2013-06-03 02:22:00,53.2,49.1,29.90,SW,233,0.0,0.0,86,0.00,,,0.00,WeatherDisplay:10.37,2013-06-03 06:22:00,
2013-06-03 02:27:00,53.0,49.2,29.90,WNW,285,0.0,0.3,87,0.00,,,0.00,WeatherDisplay:10.37,2013-06-03 06:27:00,
2013-06-03 02:32:00,52.9,49.1,29.90,NNW,329,0.0,0.0,87,0.00,,,0.00,WeatherDisplay:10.37,2013-06-03 06:32:00,
2013-06-03 02:37:00,52.7,48.9,29.90,WNW,295,1.1,0.0,87,0.00,,,0.00,WeatherDisplay:10.37,2013-06-03 06:37:00,
2013-06-03 02:42:00,52.6,48.8,29.90,West,278,1.1,1.1,87,0.00,,,0.00,WeatherDisplay:10.37,2013-06-03 06:42:00,
2013-06-03 02:47:00,52.5,48.7,29.90,SW,233,3.0,3.0,87,0.00,,,0.00,WeatherDisplay:10.37,2013-06-03 06:47:00,
2013-06-03 02:52:00,52.5,48.4,29.90,WNW,299,3.5,3.5,86,0.00,,,0.00,WeatherDisplay:10.37,2013-06-03 06:52:00,
2013-06-03 02:57:00,52.6,48.5,29.90,NE,56,1.1,0.0,86,0.00,,,0.00,WeatherDisplay:10.37,2013-06-03 06:57:00,
2013-06-03 03:02:00,52.6,48.2,29.91,West,263,1.1,1.1,85,0.00,,,0.00,WeatherDisplay:10.37,2013-06-03 07:02:00,
2013-06-03 03:07:00,52.5,47.8,29.91,SSW,207,3.5,3.5,84,0.00,,,0.00,WeatherDisplay:10.37,2013-06-03 07:07:00,
2013-06-03 03:12:00,52.4,47.4,29.91,NW,310,2.3,2.3,83,0.00,,,0.00,WeatherDisplay:10.37,2013-06-03 07:12:00,
2013-06-03 03:17:00,52.2,46.9,29.91,WSW,252,3.5,3.5,82,0.00,,,0.00,WeatherDisplay:10.37,2013-06-03 07:17:00,
2013-06-03 03:22:00,52.1,47.1,29.91,North,359,1.1,0.0,83,0.00,,,0.00,WeatherDisplay:10.37,2013-06-03 07:22:00,
2013-06-03 03:27:00,52.0,47.0,29.91,SSW,204,2.3,0.0,83,0.00,,,0.00,WeatherDisplay:10.37,2013-06-03 07:27:00,
2013-06-03 03:32:00,52.0,47.3,29.91,SSE,163,0.0,0.0,84,0.00,,,0.00,WeatherDisplay:10.37,2013-06-03 07:32:00,
2013-06-03 03:37:00,51.9,46.9,29.91,South,188,1.1,1.1,83,0.00,,,0.00,WeatherDisplay:10.37,2013-06-03 07:37:00,
2013-06-03 03:42:00,51.8,46.5,29.91,SSE,166,0.0,0.0,82,0.00,,,0.00,WeatherDisplay:10.37,2013-06-03 07:42:00,
2013-06-03 03:47:00,51.7,46.4,29.91,West,269,2.3,2.3,82,0.00,,,0.00,WeatherDisplay:10.37,2013-06-03 07:47:00,
2013-06-03 03:52:00,51.6,46.3,29.91,North,356,0.0,0.1,82,0.00,,,0.00,WeatherDisplay:10.37,2013-06-03 07:52:00,
2013-06-03 03:57:00,51.5,46.2,29.90,WNW,287,3.0,3.0,82,0.00,,,0.00,WeatherDisplay:10.37,2013-06-03 07:57:00,
2013-06-03 04:02:00,51.5,46.2,29.90,SW,224,3.5,3.5,82,0.00,,,0.00,WeatherDisplay:10.37,2013-06-03 08:02:00,
2013-06-03 04:07:00,51.4,46.1,29.90,NNW,340,2.3,2.4,82,0.00,,,0.00,WeatherDisplay:10.37,2013-06-03 08:07:00,
2013-06-03 04:12:00,51.4,46.1,29.90,North,1,1.1,1.1,82,0.00,,,0.00,WeatherDisplay:10.37,2013-06-03 08:12:00,
2013-06-03 04:17:00,51.4,45.8,29.90,South,180,3.5,3.5,81,0.00,,,0.00,WeatherDisplay:10.37,2013-06-03 08:17:00,
2013-06-03 04:22:00,51.4,45.8,29.90,North,356,4.6,4.6,81,0.00,,,0.00,WeatherDisplay:10.37,2013-06-03 08:22:00,
2013-06-03 04:27:00,51.4,45.8,29.91,North,353,4.0,4.0,81,0.00,,,0.00,WeatherDisplay:10.37,2013-06-03 08:27:00,
2013-06-03 04:32:00,51.4,45.8,29.91,WSW,249,2.3,2.3,81,0.00,,,0.00,WeatherDisplay:10.37,2013-06-03 08:32:00,
2013-06-03 04:37:00,51.4,46.1,29.91,West,280,4.6,4.6,82,0.00,,,0.00,WeatherDisplay:10.37,2013-06-03 08:37:00,
2013-06-03 04:42:00,51.4,46.1,29.91,WSW,243,3.5,3.5,82,0.00,,,0.00,WeatherDisplay:10.37,2013-06-03 08:42:00,
2013-06-03 04:47:00,51.4,46.4,29.91,WSW,253,5.8,5.8,83,0.00,,,0.00,WeatherDisplay:10.37,2013-06-03 08:47:00,
2013-06-03 04:52:00,51.4,46.4,29.91,SW,233,1.1,1.1,83,0.00,,,0.00,WeatherDisplay:10.37,2013-06-03 08:52:00,
2013-06-03 04:57:00,51.3,46.6,29.91,NNE,27,2.3,2.3,84,0.00,,,0.00,WeatherDisplay:10.37,2013-06-03 08:57:00,
2013-06-03 05:02:00,51.2,46.8,29.91,SW,232,3.5,3.5,85,0.00,CLR,,0.00,WeatherDisplay:10.37,2013-06-03 09:02:00,
2013-06-03 05:07:00,51.2,46.8,29.91,SSW,212,2.3,2.3,85,0.00,CLR,,0.00,WeatherDisplay:10.37,2013-06-03 09:07:00,
2013-06-03 05:12:00,51.2,46.5,29.91,SW,228,4.6,4.6,84,0.00,CLR,,0.00,WeatherDisplay:10.37,2013-06-03 09:12:00,
2013-06-03 05:17:00,51.2,46.2,29.91,North,349,3.5,3.5,83,0.00,CLR,,0.00,WeatherDisplay:10.37,2013-06-03 09:17:00,
2013-06-03 05:22:00,51.2,46.2,29.91,WSW,246,3.5,3.5,83,0.00,CLR,,0.00,WeatherDisplay:10.37,2013-06-03 09:22:00,
2013-06-03 05:27:00,51.2,46.2,29.91,SE,146,3.5,3.5,83,0.00,CLR,,0.00,WeatherDisplay:10.37,2013-06-03 09:27:00,
2013-06-03 05:32:00,51.3,46.3,29.91,NE,35,2.3,2.3,83,0.00,CLR,,0.00,WeatherDisplay:10.37,2013-06-03 09:32:00,
2013-06-03 05:37:00,51.3,46.3,29.92,WNW,302,3.5,3.5,83,0.00,CLR,,0.00,WeatherDisplay:10.37,2013-06-03 09:37:00,
2013-06-03 05:42:00,51.4,46.1,29.92,NW,325,1.1,1.1,82,0.00,CLR,,0.00,WeatherDisplay:10.37,2013-06-03 09:42:00,
2013-06-03 05:47:00,51.3,46.3,29.92,WSW,243,1.1,1.1,83,0.00,CLR,,0.00,WeatherDisplay:10.37,2013-06-03 09:47:00,
2013-06-03 05:52:00,51.4,46.4,29.92,South,170,1.1,1.1,83,0.00,CLR,,0.00,WeatherDisplay:10.37,2013-06-03 09:52:00,
2013-06-03 05:57:00,51.5,46.8,29.92,NW,323,0.0,0.0,84,0.00,CLR,,0.00,WeatherDisplay:10.37,2013-06-03 09:57:00,
2013-06-03 06:02:00,51.6,46.3,29.92,NW,308,5.8,5.8,82,0.00,CLR,,0.00,WeatherDisplay:10.37,2013-06-03 10:02:00,
2013-06-03 06:07:00,51.6,46.3,29.92,WSW,257,3.5,3.5,82,0.00,CLR,,0.00,WeatherDisplay:10.37,2013-06-03 10:07:00,
2013-06-03 06:12:00,51.5,45.9,29.92,WNW,293,5.8,5.8,81,0.00,CLR,,0.00,WeatherDisplay:10.37,2013-06-03 10:12:00,
2013-06-03 06:17:00,51.6,46.0,29.92,NW,323,3.5,3.5,81,0.00,CLR,,0.00,WeatherDisplay:10.37,2013-06-03 10:17:00,
2013-06-03 06:22:00,51.6,45.6,29.92,WNW,294,5.8,5.8,80,0.00,CLR,,0.00,WeatherDisplay:10.37,2013-06-03 10:22:00,
2013-06-03 06:28:00,51.6,45.6,29.92,West,273,1.1,1.1,80,0.00,CLR,,0.00,WeatherDisplay:10.37,2013-06-03 10:28:00,
2013-06-03 06:33:00,51.7,46.1,29.92,West,273,3.0,3.0,81,0.00,CLR,,0.00,WeatherDisplay:10.37,2013-06-03 10:33:00,
2013-06-03 06:38:00,51.8,46.2,29.93,West,259,3.5,3.5,81,0.00,CLR,,0.00,WeatherDisplay:10.37,2013-06-03 10:38:00,
2013-06-03 06:43:00,51.8,45.8,29.93,WSW,252,2.3,2.3,80,0.00,CLR,,0.00,WeatherDisplay:10.37,2013-06-03 10:43:00,
2013-06-03 06:48:00,51.8,45.8,29.93,ENE,69,3.5,3.5,80,0.00,CLR,,0.00,WeatherDisplay:10.37,2013-06-03 10:48:00,
2013-06-03 06:53:00,51.8,45.8,29.93,WSW,256,3.5,3.5,80,0.00,CLR,,0.00,WeatherDisplay:10.37,2013-06-03 10:53:00,
2013-06-03 06:58:00,51.8,45.8,29.94,WNW,290,5.8,5.8,80,0.00,CLR,,0.00,WeatherDisplay:10.37,2013-06-03 10:58:00,
2013-06-03 07:03:00,51.8,45.8,29.94,West,269,8.1,8.1,80,0.00,CLR,,0.00,WeatherDisplay:10.37,2013-06-03 11:03:00,
2013-06-03 07:08:00,51.8,45.5,29.94,North,359,2.3,2.3,79,0.00,CLR,,0.00,WeatherDisplay:10.37,2013-06-03 11:08:00,
2013-06-03 07:13:00,51.8,45.8,29.94,West,262,4.0,4.0,80,0.00,CLR,,0.00,WeatherDisplay:10.37,2013-06-03 11:13:00,
2013-06-03 07:18:00,51.8,45.5,29.94,NE,44,3.5,3.5,79,0.00,CLR,,0.00,WeatherDisplay:10.37,2013-06-03 11:18:00,
2013-06-03 07:23:00,51.9,45.9,29.94,ESE,114,3.5,3.5,80,0.00,CLR,,0.00,WeatherDisplay:10.37,2013-06-03 11:23:00,
2013-06-03 07:28:00,52.0,46.0,29.95,WNW,294,1.1,1.1,80,0.00,CLR,,0.00,WeatherDisplay:10.37,2013-06-03 11:28:00,
2013-06-03 07:33:00,51.9,45.3,29.95,West,281,5.8,5.8,78,0.00,CLR,,0.00,WeatherDisplay:10.37,2013-06-03 11:33:00,
2013-06-03 07:38:00,52.0,46.0,29.95,West,276,0.0,0.0,80,0.00,CLR,,0.00,WeatherDisplay:10.37,2013-06-03 11:38:00,
2013-06-03 07:43:00,52.2,46.2,29.95,SW,218,2.3,2.3,80,0.00,CLR,,0.00,WeatherDisplay:10.37,2013-06-03 11:43:00,
2013-06-03 07:48:00,52.4,45.7,29.95,SSW,207,3.0,3.0,78,0.00,CLR,,0.00,WeatherDisplay:10.37,2013-06-03 11:48:00,
2013-06-03 07:53:00,52.4,45.4,29.95,SE,129,2.3,2.3,77,0.00,CLR,,0.00,WeatherDisplay:10.37,2013-06-03 11:53:00,
2013-06-03 07:58:00,52.3,45.6,29.95,West,269,0.0,0.0,78,0.00,CLR,,0.00,WeatherDisplay:10.37,2013-06-03 11:58:00,
2013-06-03 08:03:00,52.2,45.5,29.96,West,265,2.3,2.3,78,0.00,CLR,,0.00,WeatherDisplay:10.37,2013-06-03 12:03:00,
2013-06-03 08:08:00,52.2,45.5,29.96,WSW,240,3.5,3.5,78,0.00,CLR,,0.00,WeatherDisplay:10.37,2013-06-03 12:08:00,
2013-06-03 08:13:00,52.3,45.3,29.96,West,267,3.5,3.5,77,0.00,CLR,,0.00,WeatherDisplay:10.37,2013-06-03 12:13:00,
2013-06-03 08:18:00,52.4,45.4,29.96,SW,225,3.5,3.5,77,0.00,CLR,,0.00,WeatherDisplay:10.37,2013-06-03 12:18:00,
2013-06-03 08:23:00,52.5,45.8,29.96,SE,139,1.1,1.1,78,0.00,CLR,,0.00,WeatherDisplay:10.37,2013-06-03 12:23:00,
2013-06-03 08:28:00,52.8,45.8,29.96,West,270,2.3,2.3,77,0.00,CLR,,0.00,WeatherDisplay:10.37,2013-06-03 12:28:00,
2013-06-03 08:33:00,53.1,46.4,29.95,WNW,295,4.0,4.0,78,0.00,CLR,,0.00,WeatherDisplay:10.37,2013-06-03 12:33:00,
2013-06-03 08:38:00,53.4,46.0,29.95,ESE,122,4.6,4.6,76,0.00,CLR,,0.00,WeatherDisplay:10.37,2013-06-03 12:38:00,
2013-06-03 08:43:00,53.7,46.0,29.95,SSW,211,1.1,1.1,75,0.00,CLR,,0.00,WeatherDisplay:10.37,2013-06-03 12:43:00,
2013-06-03 08:48:00,53.8,46.1,29.95,NW,314,0.0,0.0,75,0.00,CLR,,0.00,WeatherDisplay:10.37,2013-06-03 12:48:00,
2013-06-03 08:53:00,53.8,46.1,29.95,WSW,246,0.0,0.0,75,0.00,CLR,,0.00,WeatherDisplay:10.37,2013-06-03 12:53:00,
2013-06-03 08:58:00,54.1,46.0,29.96,North,6,3.5,3.5,74,0.00,CLR,,0.00,WeatherDisplay:10.37,2013-06-03 12:58:00,
2013-06-03 09:03:00,53.8,45.3,29.96,West,261,5.8,5.8,73,0.00,CLR,,0.00,WeatherDisplay:10.37,2013-06-03 13:03:00,
2013-06-03 09:08:00,53.5,45.8,29.96,West,262,2.3,2.3,75,0.00,CLR,,0.00,WeatherDisplay:10.37,2013-06-03 13:08:00,
2013-06-03 09:13:00,53.4,46.0,29.96,SW,231,1.1,0.0,76,0.00,CLR,,0.00,WeatherDisplay:10.37,2013-06-03 13:13:00,
2013-06-03 09:18:00,53.9,46.9,29.96,WSW,250,1.1,0.0,77,0.00,CLR,,0.00,WeatherDisplay:10.37,2013-06-03 13:18:00,
2013-06-03 09:23:00,54.2,46.4,29.96,SW,225,2.3,2.3,75,0.00,CLR,,0.00,WeatherDisplay:10.37,2013-06-03 13:23:00,
2013-06-03 09:28:00,53.9,46.2,29.96,ESE,112,1.1,1.1,75,0.00,CLR,,0.00,WeatherDisplay:10.37,2013-06-03 13:28:00,
2013-06-03 09:33:00,54.0,46.6,29.96,ENE,58,3.5,3.5,76,0.00,CLR,,0.00,WeatherDisplay:10.37,2013-06-03 13:33:00,
2013-06-03 09:38:00,54.0,46.3,29.96,NW,308,2.3,2.3,75,0.00,CLR,,0.00,WeatherDisplay:10.37,2013-06-03 13:38:00,
2013-06-03 09:43:00,54.3,46.2,29.96,WSW,253,3.0,3.0,74,0.00,CLR,,0.00,WeatherDisplay:10.37,2013-06-03 13:43:00,
2013-06-03 09:48:00,54.3,46.5,29.97,WSW,249,2.3,2.3,75,0.00,CLR,,0.00,WeatherDisplay:10.37,2013-06-03 13:48:00,
2013-06-03 09:53:00,54.4,46.6,29.97,WNW,284,2.3,2.3,75,0.00,CLR,,0.00,WeatherDisplay:10.37,2013-06-03 13:53:00,
2013-06-03 09:58:00,54.5,46.0,29.97,ENE,66,3.5,3.5,73,0.00,CLR,,0.00,WeatherDisplay:10.37,2013-06-03 13:58:00,
2013-06-03 10:03:00,54.7,46.2,29.97,WNW,293,5.8,5.8,73,0.00,CLR,,0.00,WeatherDisplay:10.37,2013-06-03 14:03:00,
2013-06-03 10:08:00,54.6,46.1,29.97,West,263,3.5,3.5,73,0.00,CLR,,0.00,WeatherDisplay:10.37,2013-06-03 14:08:00,
2013-06-03 10:13:00,54.7,46.2,29.97,WNW,285,3.5,3.5,73,0.00,CLR,,0.00,WeatherDisplay:10.37,2013-06-03 14:13:00,
2013-06-03 10:18:00,54.8,46.7,29.97,ENE,70,2.3,2.3,74,0.00,CLR,,0.00,WeatherDisplay:10.37,2013-06-03 14:18:00,
2013-06-03 10:23:00,54.8,46.3,29.97,WNW,283,3.5,3.5,73,0.00,CLR,,0.00,WeatherDisplay:10.37,2013-06-03 14:23:00,
2013-06-03 10:28:00,54.7,46.2,29.97,ENE,63,3.0,3.0,73,0.00,CLR,,0.00,WeatherDisplay:10.37,2013-06-03 14:28:00,
2013-06-03 10:33:00,54.7,45.8,29.97,NNW,337,3.5,3.5,72,0.00,CLR,,0.00,WeatherDisplay:10.37,2013-06-03 14:33:00,
2013-06-03 10:38:00,54.8,45.9,29.96,WNW,289,3.5,3.5,72,0.00,CLR,,0.00,WeatherDisplay:10.37,2013-06-03 14:38:00,
2013-06-03 10:43:00,55.0,46.5,29.96,WSW,249,2.3,2.3,73,0.00,CLR,,0.00,WeatherDisplay:10.37,2013-06-03 14:43:00,
2013-06-03 10:48:00,55.5,46.6,29.96,ESE,113,4.6,4.6,72,0.00,CLR,,0.00,WeatherDisplay:10.37,2013-06-03 14:48:00,
2013-06-03 10:53:00,55.7,46.4,29.97,SW,229,1.1,1.1,71,0.00,CLR,,0.00,WeatherDisplay:10.37,2013-06-03 14:53:00,
2013-06-03 10:58:00,56.2,46.2,29.97,North,358,3.5,3.5,69,0.00,CLR,,0.00,WeatherDisplay:10.37,2013-06-03 14:58:00,
2013-06-03 11:03:00,56.4,46.7,29.97,East,87,3.5,3.5,70,0.00,CLR,,0.00,WeatherDisplay:10.37,2013-06-03 15:03:00,
2013-06-03 11:08:00,56.1,45.3,29.97,West,262,5.0,5.0,67,0.00,CLR,,0.00,WeatherDisplay:10.37,2013-06-03 15:08:00,
2013-06-03 11:13:00,56.3,45.9,29.97,WSW,255,4.6,4.6,68,0.00,CLR,,0.00,WeatherDisplay:10.37,2013-06-03 15:13:00,
2013-06-03 11:18:00,56.8,46.0,29.97,West,266,5.8,5.8,67,0.00,CLR,,0.00,WeatherDisplay:10.37,2013-06-03 15:18:00,
2013-06-03 11:23:00,57.2,46.7,29.96,West,267,2.3,2.3,68,0.00,CLR,,0.00,WeatherDisplay:10.37,2013-06-03 15:23:00,
2013-06-03 11:28:00,57.8,46.5,29.96,SE,132,0.0,0.3,66,0.00,CLR,,0.00,WeatherDisplay:10.37,2013-06-03 15:28:00,
2013-06-03 11:33:00,58.0,46.3,29.96,West,265,3.5,3.5,65,0.00,CLR,,0.00,WeatherDisplay:10.37,2013-06-03 15:33:00,
2013-06-03 11:38:00,57.9,47.0,29.96,West,265,1.1,0.0,67,0.00,CLR,,0.00,WeatherDisplay:10.37,2013-06-03 15:38:00,
2013-06-03 11:43:00,58.7,47.0,29.96,ESE,110,3.5,3.5,65,0.00,CLR,,0.00,WeatherDisplay:10.37,2013-06-03 15:43:00,
2013-06-03 11:48:00,58.9,45.5,29.96,WNW,291,3.5,3.5,61,0.00,CLR,,0.00,WeatherDisplay:10.37,2013-06-03 15:48:00,
2013-06-03 11:53:00,58.8,45.4,29.96,West,269,4.6,4.6,61,0.00,CLR,,0.00,WeatherDisplay:10.37,2013-06-03 15:53:00,
2013-06-03 11:58:00,59.3,46.7,29.96,WSW,240,2.3,2.3,63,0.00,CLR,,0.00,WeatherDisplay:10.37,2013-06-03 15:58:00,
2013-06-03 12:03:00,59.6,46.6,29.96,NNE,12,4.6,4.6,62,0.00,CLR,,0.00,WeatherDisplay:10.37,2013-06-03 16:03:00,
2013-06-03 12:08:00,59.5,46.0,29.96,ESE,105,2.3,2.3,61,0.00,CLR,,0.00,WeatherDisplay:10.37,2013-06-03 16:08:00,
2013-06-03 12:13:00,59.7,46.2,29.96,WSW,240,3.5,3.5,61,0.00,CLR,,0.00,WeatherDisplay:10.37,2013-06-03 16:13:00,
2013-06-03 12:18:00,59.8,46.3,29.96,NW,316,6.9,6.9,61,0.00,CLR,,0.00,WeatherDisplay:10.37,2013-06-03 16:18:00,
2013-06-03 12:23:00,60.4,47.3,29.96,East,85,5.0,5.0,62,0.00,CLR,,0.00,WeatherDisplay:10.37,2013-06-03 16:23:00,
2013-06-03 12:28:00,60.6,49.2,29.96,WNW,297,4.0,4.0,66,0.00,CLR,,0.00,WeatherDisplay:10.37,2013-06-03 16:28:00,
2013-06-03 12:33:00,60.1,47.9,29.96,NW,311,5.8,5.8,64,0.00,CLR,,0.00,WeatherDisplay:10.37,2013-06-03 16:33:00,
2013-06-03 12:38:00,59.7,47.5,29.96,SSW,212,3.0,3.0,64,0.00,CLR,,0.00,WeatherDisplay:10.37,2013-06-03 16:38:00,
2013-06-03 12:43:00,59.7,48.3,29.96,West,263,1.1,1.1,66,0.00,CLR,,0.00,WeatherDisplay:10.37,2013-06-03 16:43:00,
2013-06-03 12:48:00,59.9,48.5,29.95,ENE,69,3.0,3.0,66,0.00,CLR,,0.00,WeatherDisplay:10.37,2013-06-03 16:48:00,
2013-06-03 12:53:00,60.3,48.9,29.95,ESE,105,2.3,2.3,66,0.00,CLR,,0.00,WeatherDisplay:10.37,2013-06-03 16:53:00,
2013-06-03 12:58:00,60.5,49.1,29.95,ENE,66,2.0,2.0,66,0.00,CLR,,0.00,WeatherDisplay:10.37,2013-06-03 16:58:00,
2013-06-03 13:03:00,60.9,49.5,29.95,SSE,151,2.3,2.3,66,0.00,CLR,,0.00,WeatherDisplay:10.37,2013-06-03 17:03:00,
2013-06-03 13:08:00,61.1,49.2,29.95,NE,52,2.3,2.3,65,0.00,CLR,,0.00,WeatherDisplay:10.37,2013-06-03 17:08:00,
2013-06-03 13:13:00,61.6,49.3,29.95,SSE,162,8.1,8.1,64,0.00,CLR,,0.00,WeatherDisplay:10.37,2013-06-03 17:13:00,
2013-06-03 13:18:00,61.4,49.1,29.95,WNW,292,4.0,4.0,64,0.00,CLR,,0.00,WeatherDisplay:10.37,2013-06-03 17:18:00,
2013-06-03 13:23:00,60.8,49.0,29.95,NE,40,3.5,3.5,65,0.00,CLR,,0.00,WeatherDisplay:10.37,2013-06-03 17:23:00,
2013-06-03 13:28:00,60.9,48.6,29.96,West,276,5.0,5.0,64,0.00,CLR,,0.00,WeatherDisplay:10.37,2013-06-03 17:28:00,
2013-06-03 13:33:00,60.7,48.4,29.95,WSW,244,5.0,5.0,64,0.00,CLR,,0.00,WeatherDisplay:10.37,2013-06-03 17:33:00,
2013-06-03 13:38:00,61.0,49.6,29.95,SW,224,3.5,3.5,66,0.00,CLR,,0.00,WeatherDisplay:10.37,2013-06-03 17:38:00,
2013-06-03 13:43:00,60.9,49.1,29.96,SE,132,5.8,5.8,65,0.00,CLR,,0.00,WeatherDisplay:10.37,2013-06-03 17:43:00,
2013-06-03 13:48:00,61.2,48.9,29.96,ESE,107,3.5,3.5,64,0.00,CLR,,0.00,WeatherDisplay:10.37,2013-06-03 17:48:00,
2013-06-03 13:53:00,61.4,49.5,29.96,ESE,115,4.6,4.6,65,0.00,CLR,,0.00,WeatherDisplay:10.37,2013-06-03 17:53:00,
2013-06-03 13:58:00,61.4,49.5,29.96,NNE,33,4.6,4.6,65,0.00,CLR,,0.00,WeatherDisplay:10.37,2013-06-03 17:58:00,
2013-06-03 14:04:00,61.8,49.1,29.96,WNW,294,3.5,3.5,63,0.00,CLR,,0.00,WeatherDisplay:10.37,2013-06-03 18:04:00,
2013-06-03 14:09:00,61.0,48.3,29.96,WNW,295,4.6,4.6,63,0.00,CLR,,0.00,WeatherDisplay:10.37,2013-06-03 18:09:00,
2013-06-03 14:14:00,60.7,48.4,29.96,WNW,288,5.8,5.8,64,0.00,CLR,,0.00,WeatherDisplay:10.37,2013-06-03 18:14:00,
2013-06-03 14:19:00,60.9,48.2,29.96,ENE,71,8.1,8.1,63,0.00,CLR,,0.00,WeatherDisplay:10.37,2013-06-03 18:19:00,
2013-06-03 14:24:00,61.0,49.1,29.96,ESE,119,3.5,3.5,65,0.00,CLR,,0.00,WeatherDisplay:10.37,2013-06-03 18:24:00,
2013-06-03 14:29:00,60.6,48.8,29.96,NE,36,5.8,5.8,65,0.00,CLR,,0.00,WeatherDisplay:10.37,2013-06-03 18:29:00,
2013-06-03 14:34:00,60.3,48.9,29.95,NNE,33,3.5,3.5,66,0.00,CLR,,0.00,WeatherDisplay:10.37,2013-06-03 18:34:00,
2013-06-03 14:39:00,60.3,49.7,29.96,WSW,242,3.5,3.5,68,0.00,CLR,,0.00,WeatherDisplay:10.37,2013-06-03 18:39:00,
2013-06-03 14:44:00,60.3,49.3,29.96,ESE,117,4.6,4.6,67,0.00,CLR,,0.00,WeatherDisplay:10.37,2013-06-03 18:44:00,
2013-06-03 14:49:00,59.8,47.6,29.96,SW,226,10.4,10.4,64,0.00,CLR,,0.00,WeatherDisplay:10.37,2013-06-03 18:49:00,
2013-06-03 14:54:00,59.2,47.8,29.96,West,274,4.6,4.6,66,0.00,CLR,,0.00,WeatherDisplay:10.37,2013-06-03 18:54:00,
2013-06-03 14:59:00,59.0,48.4,29.96,NW,304,8.0,8.0,68,0.00,CLR,,0.00,WeatherDisplay:10.37,2013-06-03 18:59:00,
2013-06-03 15:04:00,59.4,48.4,29.96,NE,51,5.8,5.8,67,0.00,CLR,,0.00,WeatherDisplay:10.37,2013-06-03 19:04:00,
2013-06-03 15:09:00,59.4,48.4,29.96,East,93,3.5,3.5,67,0.00,CLR,,0.00,WeatherDisplay:10.37,2013-06-03 19:09:00,
2013-06-03 15:14:00,60.1,48.7,29.96,WNW,295,6.9,6.9,66,0.00,CLR,,0.00,WeatherDisplay:10.37,2013-06-03 19:14:00,
2013-06-03 15:19:00,59.6,47.8,29.96,WNW,284,9.2,9.2,65,0.00,CLR,,0.00,WeatherDisplay:10.37,2013-06-03 19:19:00,
2013-06-03 15:24:00,59.6,48.6,29.96,ENE,70,2.3,2.3,67,0.00,CLR,,0.00,WeatherDisplay:10.37,2013-06-03 19:24:00,
2013-06-03 15:29:00,59.9,48.1,29.96,WSW,241,10.4,10.4,65,0.00,CLR,,0.00,WeatherDisplay:10.37,2013-06-03 19:29:00,
2013-06-03 15:34:00,60.1,47.9,29.95,NNE,32,6.9,6.9,64,0.00,CLR,,0.00,WeatherDisplay:10.37,2013-06-03 19:34:00,
2013-06-03 15:39:00,59.9,48.1,29.95,NE,41,4.6,4.6,65,0.00,CLR,,0.00,WeatherDisplay:10.37,2013-06-03 19:39:00,
2013-06-03 15:44:00,59.8,48.0,29.95,East,97,2.3,2.3,65,0.00,CLR,,0.00,WeatherDisplay:10.37,2013-06-03 19:44:00,
2013-06-03 15:49:00,60.0,48.2,29.95,WSW,241,4.6,4.6,65,0.00,CLR,,0.00,WeatherDisplay:10.37,2013-06-03 19:49:00,
2013-06-03 15:54:00,60.6,49.2,29.95,NNE,25,6.9,6.9,66,0.00,CLR,,0.00,WeatherDisplay:10.37,2013-06-03 19:54:00,
2013-06-03 15:59:00,60.7,48.9,29.95,North,350,5.8,5.8,65,0.00,CLR,,0.00,WeatherDisplay:10.37,2013-06-03 19:59:00,
2013-06-03 16:04:00,61.0,47.9,29.95,WNW,293,5.8,5.8,62,0.00,CLR,,0.00,WeatherDisplay:10.37,2013-06-03 20:04:00,
2013-06-03 16:09:00,60.4,48.2,29.95,SSE,153,5.8,5.8,64,0.00,CLR,,0.00,WeatherDisplay:10.37,2013-06-03 20:09:00,
2013-06-03 16:14:00,60.5,48.3,29.95,NW,307,4.6,4.6,64,0.00,CLR,,0.00,WeatherDisplay:10.37,2013-06-03 20:14:00,
2013-06-03 16:19:00,60.9,48.2,29.94,NW,304,1.1,1.1,63,0.00,CLR,,0.00,WeatherDisplay:10.37,2013-06-03 20:19:00,
2013-06-03 16:24:00,61.2,47.6,29.94,WNW,294,3.5,3.5,61,0.00,CLR,,0.00,WeatherDisplay:10.37,2013-06-03 20:24:00,
2013-06-03 16:29:00,61.1,46.2,29.94,West,280,4.6,4.6,58,0.00,CLR,,0.00,WeatherDisplay:10.37,2013-06-03 20:29:00,
2013-06-03 16:34:00,61.2,46.3,29.94,NNW,328,4.6,4.6,58,0.00,CLR,,0.00,WeatherDisplay:10.37,2013-06-03 20:34:00,
2013-06-03 16:39:00,61.5,46.6,29.94,West,281,4.6,4.6,58,0.00,CLR,,0.00,WeatherDisplay:10.37,2013-06-03 20:39:00,
2013-06-03 16:44:00,61.8,46.9,29.94,NNE,29,3.5,3.5,58,0.00,CLR,,0.00,WeatherDisplay:10.37,2013-06-03 20:44:00,
2013-06-03 16:49:00,62.1,46.7,29.94,West,274,3.5,3.5,57,0.00,CLR,,0.00,WeatherDisplay:10.37,2013-06-03 20:49:00,
2013-06-03 16:54:00,61.9,45.5,29.94,WNW,285,5.8,5.8,55,0.00,CLR,,0.00,WeatherDisplay:10.37,2013-06-03 20:54:00,
2013-06-03 17:00:00,62.0,45.6,29.95,SW,236,4.6,4.6,55,0.00,CLR,,0.00,WeatherDisplay:10.37,2013-06-03 21:00:00,
2013-06-03 17:05:00,62.0,44.2,29.95,NW,309,9.2,9.2,52,0.00,CLR,,0.00,WeatherDisplay:10.37,2013-06-03 21:05:00,
2013-06-03 17:10:00,61.8,43.5,29.95,West,277,6.9,6.9,51,0.00,CLR,,0.00,WeatherDisplay:10.37,2013-06-03 21:10:00,
2013-06-03 17:15:00,61.7,44.4,29.95,North,351,6.9,6.9,53,0.00,CLR,,0.00,WeatherDisplay:10.37,2013-06-03 21:15:00,
2013-06-03 17:20:00,61.6,43.8,29.95,West,275,10.4,10.4,52,0.00,CLR,,0.00,WeatherDisplay:10.37,2013-06-03 21:20:00,
2013-06-03 17:25:00,61.2,44.4,29.95,WNW,288,4.6,4.6,54,0.00,CLR,,0.00,WeatherDisplay:10.37,2013-06-03 21:25:00,
2013-06-03 17:30:00,61.5,43.7,29.95,SW,232,4.6,4.6,52,0.00,CLR,,0.00,WeatherDisplay:10.37,2013-06-03 21:30:00,
2013-06-03 17:35:00,61.3,44.0,29.95,WSW,238,3.5,3.5,53,0.00,CLR,,0.00,WeatherDisplay:10.37,2013-06-03 21:35:00,
2013-06-03 17:40:00,61.5,43.7,29.95,West,262,3.5,3.5,52,0.00,CLR,,0.00,WeatherDisplay:10.37,2013-06-03 21:40:00,
2013-06-03 17:45:00,61.6,43.3,29.95,WSW,249,3.5,3.5,51,0.00,CLR,,0.00,WeatherDisplay:10.37,2013-06-03 21:45:00,
2013-06-03 17:50:00,61.4,43.1,29.95,ESE,102,6.9,6.9,51,0.00,CLR,,0.00,WeatherDisplay:10.37,2013-06-03 21:50:00,
2013-06-03 17:55:00,61.3,43.0,29.95,SSE,155,4.6,4.6,51,0.00,CLR,,0.00,WeatherDisplay:10.37,2013-06-03 21:55:00,
2013-06-03 18:00:00,61.5,42.7,29.95,WSW,257,5.0,5.0,50,0.00,CLR,,0.00,WeatherDisplay:10.37,2013-06-03 22:00:00,
2013-06-03 18:05:00,61.5,42.2,29.95,NW,306,5.0,5.0,49,0.00,CLR,,0.00,WeatherDisplay:10.37,2013-06-03 22:05:00,
2013-06-03 18:10:00,61.7,42.9,29.95,West,281,5.8,5.8,50,0.00,CLR,,0.00,WeatherDisplay:10.37,2013-06-03 22:10:00,
2013-06-03 18:15:00,61.5,42.7,29.95,NW,307,3.5,3.5,50,0.00,CLR,,0.00,WeatherDisplay:10.37,2013-06-03 22:15:00,
2013-06-03 18:20:00,61.6,42.2,29.95,WNW,282,4.6,4.6,49,0.00,CLR,,0.00,WeatherDisplay:10.37,2013-06-03 22:20:00,
2013-06-03 18:25:00,61.8,43.0,29.95,North,5,3.5,3.5,50,0.00,CLR,,0.00,WeatherDisplay:10.37,2013-06-03 22:25:00,
2013-06-03 18:30:00,61.7,43.4,29.95,WSW,239,1.1,1.1,51,0.00,CLR,,0.00,WeatherDisplay:10.37,2013-06-03 22:30:00,
2013-06-03 18:35:00,62.5,44.6,29.95,West,281,1.1,1.1,52,0.00,CLR,,0.00,WeatherDisplay:10.37,2013-06-03 22:35:00,
2013-06-03 18:40:00,62.0,43.7,29.95,NE,40,2.3,0.0,51,0.00,CLR,,0.00,WeatherDisplay:10.37,2013-06-03 22:40:00,
2013-06-03 18:45:00,62.3,43.9,29.95,NW,326,4.6,4.6,51,0.00,CLR,,0.00,WeatherDisplay:10.37,2013-06-03 22:45:00,
2013-06-03 18:50:00,62.2,43.8,29.95,West,265,2.3,2.3,51,0.00,CLR,,0.00,WeatherDisplay:10.37,2013-06-03 22:50:00,
2013-06-03 18:55:00,62.1,44.3,29.95,WSW,243,1.1,0.0,52,0.00,CLR,,0.00,WeatherDisplay:10.37,2013-06-03 22:55:00,
2013-06-03 19:00:00,62.1,45.2,29.95,WSW,243,2.3,2.3,54,0.00,CLR,,0.00,WeatherDisplay:10.37,2013-06-03 23:00:00,
2013-06-03 19:05:00,62.2,44.3,29.95,NE,44,1.1,0.0,52,0.00,CLR,,0.00,WeatherDisplay:10.37,2013-06-03 23:05:00,
2013-06-03 19:10:00,62.5,45.1,29.95,NW,308,3.5,3.5,53,0.00,CLR,,0.00,WeatherDisplay:10.37,2013-06-03 23:10:00,
2013-06-03 19:15:00,62.2,44.9,29.95,NNW,334,1.1,1.1,53,0.00,CLR,,0.00,WeatherDisplay:10.37,2013-06-03 23:15:00,
2013-06-03 19:20:00,61.6,45.3,29.95,West,266,1.1,0.0,55,0.00,CLR,,0.00,WeatherDisplay:10.37,2013-06-03 23:20:00,
2013-06-03 19:25:00,60.7,44.4,29.95,WNW,297,2.3,2.3,55,0.00,CLR,,0.00,WeatherDisplay:10.37,2013-06-03 23:25:00,
2013-06-03 19:30:00,59.9,45.1,29.95,WNW,285,1.1,1.1,58,0.00,CLR,,0.00,WeatherDisplay:10.37,2013-06-03 23:30:00,
2013-06-03 19:35:00,59.3,45.0,29.95,NW,312,0.0,0.0,59,0.00,CLR,,0.00,WeatherDisplay:10.37,2013-06-03 23:35:00,
2013-06-03 19:40:00,58.7,45.7,29.95,North,9,0.0,0.0,62,0.00,CLR,,0.00,WeatherDisplay:10.37,2013-06-03 23:40:00,
2013-06-03 19:45:00,58.3,47.4,29.96,North,9,0.0,0.0,67,0.00,CLR,,0.00,WeatherDisplay:10.37,2013-06-03 23:45:00,
2013-06-03 19:50:00,57.7,47.2,29.95,North,9,0.0,0.0,68,0.00,CLR,,0.00,WeatherDisplay:10.37,2013-06-03 23:50:00,
2013-06-03 19:55:00,57.2,47.5,29.96,North,9,0.0,0.0,70,0.00,CLR,,0.00,WeatherDisplay:10.37,2013-06-03 23:55:00,
2013-06-03 20:00:00,56.7,47.4,29.96,WSW,255,0.0,0.0,71,0.00,CLR,,0.00,WeatherDisplay:10.37,2013-06-04 00:00:00,
2013-06-03 20:05:00,56.3,47.4,29.96,WSW,256,0.0,0.0,72,0.00,CLR,,0.00,WeatherDisplay:10.37,2013-06-04 00:05:00,
2013-06-03 20:10:00,55.8,47.6,29.96,WSW,257,0.0,0.0,74,0.00,CLR,,0.00,WeatherDisplay:10.37,2013-06-04 00:10:00,
2013-06-03 20:15:00,55.3,47.5,29.96,WSW,256,0.0,0.0,75,0.00,CLR,,0.00,WeatherDisplay:10.37,2013-06-04 00:15:00,
2013-06-03 20:20:00,54.7,47.6,29.96,WSW,256,0.0,0.0,77,0.00,CLR,,0.00,WeatherDisplay:10.37,2013-06-04 00:20:00,
2013-06-03 20:25:00,54.2,47.5,29.97,WSW,256,0.0,0.0,78,0.00,CLR,,0.00,WeatherDisplay:10.37,2013-06-04 00:25:00,
2013-06-03 20:30:00,53.7,47.3,29.96,WSW,255,0.0,0.0,79,0.00,CLR,,0.00,WeatherDisplay:10.37,2013-06-04 00:30:00,
2013-06-03 20:35:00,53.2,47.2,29.96,WSW,257,0.0,0.0,80,0.00,CLR,,0.00,WeatherDisplay:10.37,2013-06-04 00:35:00,
2013-06-03 20:40:00,52.8,46.8,29.96,WSW,256,0.0,0.0,80,0.00,CLR,,0.00,WeatherDisplay:10.37,2013-06-04 00:40:00,
2013-06-03 20:45:00,52.3,47.0,29.96,WSW,256,0.0,0.0,82,0.00,CLR,,0.00,WeatherDisplay:10.37,2013-06-04 00:45:00,
2013-06-03 20:50:00,51.9,46.9,29.97,WSW,256,0.0,0.0,83,0.00,CLR,,0.00,WeatherDisplay:10.37,2013-06-04 00:50:00,
2013-06-03 20:55:00,51.5,46.5,29.97,WSW,255,0.0,0.0,83,0.00,CLR,,0.00,WeatherDisplay:10.37,2013-06-04 00:55:00,
2013-06-03 21:00:00,51.1,46.4,29.97,WSW,256,0.0,0.0,84,0.00,,,0.00,WeatherDisplay:10.37,2013-06-04 01:00:00,
2013-06-03 21:05:00,50.8,46.5,29.97,WSW,255,0.0,0.0,85,0.00,,,0.00,WeatherDisplay:10.37,2013-06-04 01:05:00,
2013-06-03 21:11:00,50.5,46.2,29.97,WSW,255,0.0,0.0,85,0.00,,,0.00,WeatherDisplay:10.37,2013-06-04 01:11:00,
2013-06-03 21:16:00,50.2,45.9,29.97,WSW,256,0.0,0.0,85,0.00,,,0.00,WeatherDisplay:10.37,2013-06-04 01:16:00,
2013-06-03 21:21:00,50.2,45.9,29.97,West,263,0.0,0.0,85,0.00,,,0.00,WeatherDisplay:10.37,2013-06-04 01:21:00,
2013-06-03 21:26:00,50.2,45.9,29.98,West,266,0.0,0.0,85,0.00,,,0.00,WeatherDisplay:10.37,2013-06-04 01:26:00,
2013-06-03 21:31:00,50.2,45.9,29.98,West,266,0.0,0.0,85,0.00,,,0.00,WeatherDisplay:10.37,2013-06-04 01:31:00,
2013-06-03 21:36:00,50.2,46.2,29.98,West,266,0.0,0.0,86,0.00,,,0.00,WeatherDisplay:10.37,2013-06-04 01:36:00,
2013-06-03 21:41:00,50.6,45.9,29.99,WSW,252,6.9,6.9,84,0.00,,,0.00,WeatherDisplay:10.37,2013-06-04 01:41:00,
2013-06-03 21:46:00,51.4,46.4,29.99,WNW,289,1.1,1.1,83,0.00,,,0.00,WeatherDisplay:10.37,2013-06-04 01:46:00,
2013-06-03 21:51:00,51.6,46.3,29.99,SW,231,0.0,0.0,82,0.00,,,0.00,WeatherDisplay:10.37,2013-06-04 01:51:00,
2013-06-03 21:56:00,51.4,45.8,30.00,West,278,0.0,0.0,81,0.00,,,0.00,WeatherDisplay:10.37,2013-06-04 01:56:00,
2013-06-03 22:01:00,51.3,45.7,30.00,NW,319,0.0,0.0,81,0.00,,,0.00,WeatherDisplay:10.37,2013-06-04 02:01:00,
2013-06-03 22:07:00,51.2,45.2,30.00,SW,232,1.1,1.1,80,0.00,,,0.00,WeatherDisplay:10.37,2013-06-04 02:07:00,
2013-06-03 22:12:00,51.1,45.1,30.00,NW,312,3.5,3.5,80,0.00,,,0.00,WeatherDisplay:10.37,2013-06-04 02:12:00,
2013-06-03 22:17:00,50.9,44.9,30.00,NW,311,1.1,1.1,80,0.00,,,0.00,WeatherDisplay:10.37,2013-06-04 02:17:00,
2013-06-03 22:22:00,50.8,44.5,30.00,NNW,338,2.3,2.3,79,0.00,,,0.00,WeatherDisplay:10.37,2013-06-04 02:22:00,
2013-06-03 22:27:00,50.7,44.8,30.00,NW,317,0.0,0.0,80,0.00,,,0.00,WeatherDisplay:10.37,2013-06-04 02:27:00,
2013-06-03 22:32:00,50.5,44.6,30.00,West,265,0.0,0.0,80,0.00,,,0.00,WeatherDisplay:10.37,2013-06-04 02:32:00,
2013-06-03 22:37:00,50.3,44.4,30.00,West,265,0.0,0.0,80,0.00,,,0.00,WeatherDisplay:10.37,2013-06-04 02:37:00,
2013-06-03 22:42:00,50.2,44.6,30.00,NW,321,0.0,0.0,81,0.00,,,0.00,WeatherDisplay:10.37,2013-06-04 02:42:00,
2013-06-03 22:47:00,49.9,44.3,30.00,NW,320,0.0,0.0,81,0.00,,,0.00,WeatherDisplay:10.37,2013-06-04 02:47:00,
2013-06-03 22:52:00,49.6,44.0,30.00,NW,321,0.0,0.0,81,0.00,,,0.00,WeatherDisplay:10.37,2013-06-04 02:52:00,
2013-06-03 22:57:00,49.3,44.0,30.00,NE,35,0.0,0.0,82,0.00,,,0.00,WeatherDisplay:10.37,2013-06-04 02:57:00,
2013-06-03 23:02:00,49.3,44.0,30.00,NE,35,0.0,0.0,82,0.00,CLR,,0.00,WeatherDisplay:10.37,2013-06-04 03:02:00,
2013-06-03 23:07:00,49.1,43.8,30.01,North,3,0.0,0.0,82,0.00,CLR,,0.00,WeatherDisplay:10.37,2013-06-04 03:07:00,
2013-06-03 23:12:00,48.9,44.0,30.00,North,3,0.0,0.0,83,0.00,CLR,,0.00,WeatherDisplay:10.37,2013-06-04 03:12:00,
2013-06-03 23:17:00,48.8,43.9,30.00,North,4,0.0,0.0,83,0.00,CLR,,0.00,WeatherDisplay:10.37,2013-06-04 03:17:00,
2013-06-03 23:22:00,48.7,43.5,30.00,North,3,0.0,0.0,82,0.00,CLR,,0.00,WeatherDisplay:10.37,2013-06-04 03:22:00,
2013-06-03 23:27:00,48.5,43.6,30.00,North,4,0.0,0.0,83,0.00,CLR,,0.00,WeatherDisplay:10.37,2013-06-04 03:27:00,
2013-06-03 23:32:00,48.3,43.7,30.01,North,3,0.0,0.0,84,0.00,CLR,,0.00,WeatherDisplay:10.37,2013-06-04 03:32:00,
2013-06-03 23:37:00,48.1,43.5,30.00,North,4,0.0,0.0,84,0.00,CLR,,0.00,WeatherDisplay:10.37,2013-06-04 03:37:00,
2013-06-03 23:42:00,47.9,43.9,30.00,North,4,0.0,0.0,86,0.00,CLR,,0.00,WeatherDisplay:10.37,2013-06-04 03:42:00,
2013-06-03 23:47:00,47.7,43.7,30.00,NW,319,0.0,0.0,86,0.00,CLR,,0.00,WeatherDisplay:10.37,2013-06-04 03:47:00,
2013-06-03 23:52:00,47.5,43.5,30.00,WSW,255,0.0,0.0,86,0.00,CLR,,0.00,WeatherDisplay:10.37,2013-06-04 03:52:00,
2013-06-03 23:57:00,47.3,43.6,30.01,WSW,255,0.0,0.0,87,0.00,CLR,,0.00,WeatherDisplay:10.37,2013-06-04 03:57:00,